Terminal Aerodrome Forecast
Issued by NWS

Home | Current Version | Previous Version | Graphics & Text | Print | Product List | Glossary On
Versions: 1 2 3 4 5 6 7 8 9 10 11 12 13 14 15 16 17
000
FTUS43 KBIS 160200 AAA
TAFJMS
TAF AMD
KJMS 160257Z 1603/1624 17011KT P6SM SCT080
     FM160500 18011KT P6SM SCT045 BKN070
     FM160800 22006KT P6SM VCSH SCT035 BKN060 OVC090
     FM161200 30007KT P6SM SCT050 OVC080
     FM161500 36013G18KT P6SM SCT060 OVC080=

USA.gov is the U.S. government's official web portal to all federal, state and local government web resources and services.